createdAt,value
2023-03-18T00:00:19.269Z,95.50
2023-03-18T00:02:46.719Z,96.26
2023-03-18T00:05:13.866Z,96.18
2023-03-18T00:07:41.798Z,95.36
2023-03-18T00:10:10.448Z,95.53
2023-03-18T00:12:41.123Z,96.30
2023-03-18T00:15:09.907Z,96.50
2023-03-18T00:17:38.011Z,96.15
2023-03-18T00:20:07.104Z,96.61
2023-03-18T00:22:35.019Z,96.55
2023-03-18T00:25:02.593Z,96.30
2023-03-18T00:27:29.353Z,96.32
2023-03-18T00:29:56.364Z,97.01
2023-03-18T00:32:23.446Z,96.28
2023-03-18T00:34:51.002Z,96.28
2023-03-18T00:37:30.342Z,95.87
2023-03-18T00:39:59.864Z,97.05
2023-03-18T00:42:26.516Z,96.67
2023-03-18T00:44:53.189Z,96.72
2023-03-18T00:47:19.859Z,96.67
2023-03-18T00:49:47.496Z,96.85
2023-03-18T00:52:14.755Z,97.30
2023-03-18T00:54:41.978Z,97.12
2023-03-18T00:57:08.798Z,97.63
2023-03-18T00:59:35.744Z,96.90
2023-03-18T01:02:02.826Z,97.55
2023-03-18T01:04:29.567Z,97.03
2023-03-18T01:06:56.394Z,97.68
2023-03-18T01:09:23.794Z,97.75
2023-03-18T01:11:50.527Z,97.91
2023-03-18T01:14:17.218Z,98.48
2023-03-18T01:16:43.915Z,98.08
2023-03-18T01:19:10.863Z,98.04
2023-03-18T01:21:38.012Z,97.95
2023-03-18T01:24:05.078Z,97.40
2023-03-18T01:26:32.120Z,97.33
2023-03-18T01:28:59.668Z,97.26
2023-03-18T01:31:26.389Z,98.14
2023-03-18T01:33:53.313Z,98.67
2023-03-18T01:36:19.979Z,98.65
2023-03-18T01:38:47.124Z,98.40
2023-03-18T01:41:14.599Z,100.00
2023-03-18T01:43:43.029Z,99.87
2023-03-18T01:46:33.987Z,98.73
2023-03-18T01:49:04.094Z,98.18
2023-03-18T01:51:31.360Z,97.53
2023-03-18T01:54:00.590Z,97.34
2023-03-18T01:56:28.008Z,96.99
2023-03-18T01:58:56.062Z,97.25
2023-03-18T02:01:34.030Z,97.43
2023-03-18T02:04:02.814Z,98.33
2023-03-18T02:06:29.685Z,98.17
2023-03-18T02:08:56.907Z,99.01
2023-03-18T02:13:50.336Z,98.40
2023-03-18T02:16:27.515Z,98.38
2023-03-18T02:19:02.308Z,98.93
2023-03-18T02:21:33.866Z,98.83
2023-03-18T02:24:19.805Z,98.53
2023-03-18T02:27:17.362Z,98.31
2023-03-18T02:29:44.666Z,98.94
2023-03-18T02:32:11.697Z,97.86
2023-03-18T02:34:38.689Z,97.77
2023-03-18T02:37:08.156Z,97.57
2023-03-18T02:39:35.859Z,97.88
2023-03-18T02:42:02.977Z,99.05
2023-03-18T02:44:29.805Z,99.25
2023-03-18T02:47:04.245Z,98.22
2023-03-18T02:49:31.245Z,98.49
2023-03-18T02:51:57.878Z,99.35
2023-03-18T02:54:28.982Z,99.21
2023-03-18T02:56:56.141Z,99.99
2023-03-18T02:59:23.441Z,98.75
2023-03-18T03:01:52.399Z,99.10
2023-03-18T03:04:20.510Z,99.21
2023-03-18T03:06:47.321Z,99.17
2023-03-18T03:09:16.399Z,98.88
2023-03-18T03:11:45.115Z,98.69
2023-03-18T03:14:12.187Z,98.90
2023-03-18T03:16:39.225Z,99.24
2023-03-18T03:19:06.404Z,99.25
2023-03-18T03:21:35.967Z,100.00
2023-03-18T03:24:07.670Z,99.83
2023-03-18T03:26:35.202Z,100.00
2023-03-18T03:29:02.704Z,100.00
2023-03-18T03:31:29.360Z,100.00
2023-03-18T03:33:56.487Z,100.00
2023-03-18T03:36:23.148Z,100.00
2023-03-18T03:38:50.701Z,100.00
2023-03-18T03:41:17.317Z,100.00
2023-03-18T03:43:44.863Z,100.00
2023-03-18T03:46:11.834Z,100.00
2023-03-18T03:48:39.685Z,100.00
2023-03-18T03:51:07.229Z,100.00
2023-03-18T03:53:34.384Z,100.00
2023-03-18T03:56:01.180Z,100.00
2023-03-18T03:58:28.051Z,100.00
2023-03-18T04:00:54.635Z,100.00
2023-03-18T04:03:21.686Z,100.00
2023-03-18T04:05:49.566Z,100.00
2023-03-18T04:08:16.307Z,100.00
2023-03-18T04:10:43.488Z,100.00
2023-03-18T04:13:10.420Z,100.00
2023-03-18T04:15:37.550Z,100.00
2023-03-18T04:18:07.489Z,100.00
2023-03-18T04:20:35.785Z,100.00
2023-03-18T04:23:02.932Z,100.00
2023-03-18T04:25:30.256Z,100.00
2023-03-18T04:27:57.322Z,100.00
2023-03-18T04:30:25.747Z,100.00
2023-03-18T04:32:53.212Z,100.00
2023-03-18T04:35:19.897Z,100.00
2023-03-18T04:37:46.628Z,100.00
2023-03-18T04:40:13.378Z,100.00
2023-03-18T04:42:40.027Z,100.00
2023-03-18T04:45:07.673Z,100.00
2023-03-18T04:47:35.993Z,100.00
2023-03-18T04:50:04.739Z,100.00
2023-03-18T04:52:32.086Z,100.00
2023-03-18T04:54:58.747Z,100.00
2023-03-18T04:57:26.273Z,100.00
2023-03-18T04:59:53.027Z,100.00
2023-03-18T05:02:20.080Z,100.00
2023-03-18T05:04:46.747Z,100.00
2023-03-18T05:07:15.624Z,100.00
2023-03-18T05:09:42.703Z,100.00
2023-03-18T05:12:14.887Z,100.00
2023-03-18T05:14:45.189Z,100.00
2023-03-18T05:17:15.885Z,100.00
2023-03-18T05:19:44.793Z,100.00
2023-03-18T05:22:11.897Z,100.00
2023-03-18T05:24:39.936Z,100.00
2023-03-18T05:27:06.787Z,100.00
2023-03-18T05:29:33.745Z,100.00
2023-03-18T05:32:00.550Z,100.00
2023-03-18T05:34:27.714Z,100.00
2023-03-18T05:36:54.295Z,100.00
2023-03-18T05:39:20.911Z,100.00
2023-03-18T05:41:47.623Z,100.00
2023-03-18T05:44:14.874Z,100.00
2023-03-18T05:46:42.029Z,100.00
2023-03-18T05:49:09.029Z,100.00
2023-03-18T05:51:35.791Z,100.00
2023-03-18T05:54:02.428Z,100.00
2023-03-18T05:56:29.055Z,100.00
2023-03-18T05:58:55.658Z,100.00
2023-03-18T06:01:22.312Z,100.00
2023-03-18T06:03:48.943Z,100.00
2023-03-18T06:06:15.567Z,100.00
2023-03-18T06:08:42.184Z,100.00
2023-03-18T06:11:08.949Z,100.00
2023-03-18T06:13:35.694Z,100.00
2023-03-18T06:16:03.956Z,100.00
2023-03-18T06:18:30.665Z,100.00
2023-03-18T06:20:57.514Z,100.00
2023-03-18T06:23:24.057Z,100.00
2023-03-18T06:25:51.225Z,100.00
2023-03-18T06:28:18.838Z,100.00
2023-03-18T06:30:45.480Z,100.00
2023-03-18T06:33:12.293Z,100.00
2023-03-18T06:35:39.002Z,100.00
2023-03-18T06:38:05.883Z,100.00
2023-03-18T06:40:32.523Z,100.00
2023-03-18T06:42:59.319Z,100.00
2023-03-18T06:45:26.181Z,100.00
2023-03-18T06:47:52.948Z,100.00
2023-03-18T06:50:20.826Z,100.00
2023-03-18T06:52:48.209Z,100.00
2023-03-18T06:55:15.220Z,100.00
2023-03-18T06:57:41.869Z,100.00
2023-03-18T07:00:10.603Z,99.55
2023-03-18T07:02:39.505Z,99.22
2023-03-18T07:05:07.961Z,98.47
2023-03-18T07:07:34.938Z,97.26
2023-03-18T07:10:02.529Z,96.50
2023-03-18T07:12:29.124Z,95.36
2023-03-18T07:14:55.736Z,95.28
2023-03-18T07:17:23.068Z,94.08
2023-03-18T07:19:49.670Z,93.87
2023-03-18T07:22:17.545Z,93.41
2023-03-18T07:24:45.564Z,93.05
2023-03-18T07:27:13.631Z,92.22
2023-03-18T07:29:40.641Z,91.82
2023-03-18T07:32:07.296Z,91.22
2023-03-18T07:34:34.157Z,90.74
2023-03-18T07:37:01.268Z,90.52
2023-03-18T07:39:28.296Z,89.94
2023-03-18T07:41:55.034Z,89.71
2023-03-18T07:44:22.079Z,89.85
2023-03-18T07:46:48.855Z,89.75
2023-03-18T07:49:15.953Z,90.21
2023-03-18T07:51:42.810Z,92.04
2023-03-18T07:54:09.664Z,91.74
2023-03-18T07:56:36.282Z,91.99
2023-03-18T07:59:02.920Z,90.65
2023-03-18T08:01:29.648Z,90.11
2023-03-18T08:03:58.114Z,89.88
2023-03-18T08:06:25.494Z,89.90
2023-03-18T08:08:52.503Z,89.53
2023-03-18T08:11:19.621Z,89.94
2023-03-18T08:13:49.124Z,90.66
2023-03-18T08:16:16.353Z,89.09
2023-03-18T08:18:43.278Z,88.71
2023-03-18T08:21:09.955Z,88.37
2023-03-18T08:23:37.349Z,88.35
2023-03-18T08:26:04.666Z,88.30
2023-03-18T08:28:31.419Z,86.83
2023-03-18T08:30:59.408Z,87.03
2023-03-18T08:33:27.317Z,84.64
2023-03-18T08:35:56.134Z,83.45
2023-03-18T08:38:24.093Z,80.28
2023-03-18T08:40:50.996Z,80.48
2023-03-18T08:43:18.110Z,80.14
2023-03-18T08:45:45.255Z,80.32
2023-03-18T08:48:11.974Z,80.56
2023-03-18T08:50:39.005Z,79.67
2023-03-18T08:53:06.016Z,79.37
2023-03-18T08:55:35.386Z,79.01
2023-03-18T08:58:05.669Z,78.09
2023-03-18T09:00:34.160Z,77.88
2023-03-18T09:03:00.939Z,77.10
2023-03-18T09:05:27.615Z,77.50
2023-03-18T09:07:54.566Z,76.31
2023-03-18T09:10:21.631Z,75.85
2023-03-18T09:12:50.067Z,75.65
2023-03-18T09:15:17.707Z,74.12
2023-03-18T09:17:59.938Z,73.17
2023-03-18T09:20:30.782Z,72.31
2023-03-18T09:22:57.695Z,71.37
2023-03-18T09:25:24.877Z,70.49
2023-03-18T09:27:52.057Z,69.86
2023-03-18T09:30:18.997Z,70.21
2023-03-18T09:32:45.792Z,69.36
2023-03-18T09:35:13.424Z,68.87
2023-03-18T09:37:40.672Z,69.08
2023-03-18T09:40:08.556Z,68.65
2023-03-18T09:42:51.718Z,68.77
2023-03-18T09:45:26.633Z,67.38
2023-03-18T09:48:32.002Z,68.58
2023-03-18T09:51:24.152Z,65.86
2023-03-18T09:54:04.500Z,66.70
2023-03-18T09:56:34.897Z,64.35
2023-03-18T09:59:12.697Z,66.31
2023-03-18T10:01:40.017Z,64.44
2023-03-18T10:04:25.918Z,64.30
2023-03-18T10:07:03.179Z,65.79
2023-03-18T10:09:48.560Z,64.50
2023-03-18T10:12:20.404Z,64.99
2023-03-18T10:14:52.760Z,64.74
2023-03-18T10:17:22.952Z,65.73
2023-03-18T10:19:53.652Z,65.80
2023-03-18T10:22:50.876Z,66.63
2023-03-18T10:25:36.541Z,65.69
2023-03-18T10:28:49.847Z,65.98
2023-03-18T10:31:55.661Z,65.73
2023-03-18T10:34:27.680Z,65.59
2023-03-18T10:37:20.450Z,65.62
2023-03-18T10:39:49.627Z,64.44
2023-03-18T10:42:22.087Z,63.94
2023-03-18T10:44:50.506Z,64.78
2023-03-18T10:47:26.904Z,63.73
2023-03-18T10:50:18.218Z,63.00
2023-03-18T10:52:53.669Z,61.93
2023-03-18T10:55:23.295Z,61.39
2023-03-18T10:57:50.056Z,62.00
2023-03-18T11:00:27.377Z,61.76
2023-03-18T11:02:55.501Z,61.69
2023-03-18T11:05:27.736Z,61.48
2023-03-18T11:08:06.606Z,60.77
2023-03-18T11:10:36.131Z,60.29
2023-03-18T11:13:03.923Z,60.44
2023-03-18T11:15:37.153Z,61.26
2023-03-18T11:18:04.302Z,60.49
2023-03-18T11:20:45.804Z,60.78
2023-03-18T11:23:18.685Z,59.72
2023-03-18T11:25:46.448Z,60.42
2023-03-18T11:28:26.767Z,58.93
2023-03-18T11:30:57.130Z,58.88
2023-03-18T11:33:26.185Z,58.54
2023-03-18T11:35:55.152Z,58.60
2023-03-18T11:38:33.378Z,57.14
2023-03-18T11:41:09.067Z,57.92
2023-03-18T11:43:38.457Z,56.87
2023-03-18T11:46:09.922Z,56.69
2023-03-18T11:48:38.673Z,57.30
2023-03-18T11:52:02.995Z,56.16
2023-03-18T11:55:16.361Z,57.00
2023-03-18T11:58:29.902Z,56.54
2023-03-18T12:01:13.838Z,57.01
2023-03-18T12:04:05.049Z,56.20
2023-03-18T12:09:38.628Z,56.71
2023-03-18T12:12:22.061Z,56.77
2023-03-18T12:15:01.478Z,56.26
2023-03-18T12:17:59.783Z,55.88
2023-03-18T12:20:53.542Z,55.29
2023-03-18T12:23:50.033Z,55.19
2023-03-18T12:26:41.493Z,53.81
2023-03-18T12:30:01.441Z,53.91
2023-03-18T12:32:36.113Z,54.28
2023-03-18T12:35:36.542Z,54.50
2023-03-18T12:38:52.144Z,54.83
2023-03-18T12:41:19.704Z,54.42
2023-03-18T12:44:22.089Z,52.76
2023-03-18T12:47:05.091Z,52.96
2023-03-18T12:50:22.112Z,52.83
2023-03-18T12:52:54.313Z,52.58
2023-03-18T12:55:29.767Z,52.03
2023-03-18T12:58:02.003Z,51.28
2023-03-18T13:00:57.554Z,51.54
2023-03-18T13:03:48.926Z,49.92
2023-03-18T13:06:29.377Z,49.95
2023-03-18T13:09:39.812Z,50.12
2023-03-18T13:12:27.008Z,50.51
2023-03-18T13:15:08.786Z,50.40
2023-03-18T13:17:39.052Z,50.11
2023-03-18T13:20:23.916Z,48.65
2023-03-18T13:23:30.970Z,49.87
2023-03-18T13:26:15.469Z,49.65
2023-03-18T13:28:44.321Z,49.55
2023-03-18T13:31:45.111Z,50.48
2023-03-18T13:38:24.400Z,50.56
2023-03-18T13:41:07.625Z,50.04
2023-03-18T13:43:35.791Z,50.83
2023-03-18T13:46:02.804Z,50.49
2023-03-18T13:48:32.381Z,51.09
2023-03-18T13:51:14.758Z,51.90
2023-03-18T13:53:44.208Z,51.29
2023-03-18T13:56:46.071Z,51.40
2023-03-18T13:59:50.093Z,51.55
2023-03-18T14:03:07.224Z,51.30
2023-03-18T14:05:40.484Z,51.59
2023-03-18T14:08:58.703Z,51.59
2023-03-18T14:11:34.186Z,51.38
2023-03-18T14:14:09.193Z,51.34
2023-03-18T14:16:56.607Z,51.80
2023-03-18T14:19:28.859Z,52.02
2023-03-18T14:22:31.727Z,52.30
2023-03-18T14:25:37.513Z,51.14
2023-03-18T14:28:22.876Z,51.91
2023-03-18T14:31:12.272Z,52.44
2023-03-18T14:34:12.279Z,51.30
2023-03-18T14:39:53.495Z,51.79
2023-03-18T14:42:44.226Z,52.01
2023-03-18T14:45:25.646Z,51.28
2023-03-18T14:47:56.852Z,51.46
2023-03-18T14:50:35.796Z,51.62
2023-03-18T14:53:22.975Z,52.30
2023-03-18T14:55:51.822Z,52.62
2023-03-18T14:58:22.340Z,52.99
2023-03-18T15:00:52.258Z,52.64
2023-03-18T15:03:27.574Z,52.61
2023-03-18T15:06:02.658Z,52.45
2023-03-18T15:08:46.778Z,53.30
2023-03-18T15:11:15.058Z,54.07
2023-03-18T15:13:42.681Z,54.61
2023-03-18T15:16:14.517Z,53.12
2023-03-18T15:18:41.538Z,52.06
2023-03-18T15:21:13.388Z,52.29
2023-03-18T15:23:49.579Z,52.51
2023-03-18T15:26:24.871Z,52.20
2023-03-18T15:28:56.872Z,52.58
2023-03-18T15:31:32.142Z,52.41
2023-03-18T15:34:19.518Z,53.27
2023-03-18T15:36:55.670Z,53.73
2023-03-18T15:39:49.061Z,53.85
2023-03-18T15:42:18.451Z,54.11
2023-03-18T15:44:50.320Z,53.76
2023-03-18T15:47:33.181Z,53.86
2023-03-18T15:50:31.110Z,54.14
2023-03-18T15:53:04.460Z,54.14
2023-03-18T15:55:35.315Z,54.83
2023-03-18T15:58:04.947Z,55.28
2023-03-18T16:00:34.285Z,55.84
2023-03-18T16:03:01.494Z,56.18
2023-03-18T16:05:29.403Z,54.77
2023-03-18T16:07:58.582Z,55.13
2023-03-18T16:10:31.115Z,55.13
2023-03-18T16:13:01.311Z,54.35
2023-03-18T16:15:28.346Z,54.89
2023-03-18T16:17:58.777Z,54.96
2023-03-18T16:20:30.916Z,54.96
2023-03-18T16:22:59.990Z,55.22
2023-03-18T16:25:27.202Z,54.67
2023-03-18T16:27:57.024Z,53.98
2023-03-18T16:30:28.250Z,54.85
2023-03-18T16:32:56.543Z,55.56
2023-03-18T16:35:26.894Z,55.44
2023-03-18T16:37:53.949Z,55.84
2023-03-18T16:40:27.723Z,56.31
2023-03-18T16:42:56.770Z,56.50
2023-03-18T16:45:33.570Z,57.39
2023-03-18T16:48:08.395Z,58.89
2023-03-18T16:50:42.029Z,59.41
2023-03-18T16:53:22.431Z,60.27
2023-03-18T16:55:57.570Z,61.14
2023-03-18T16:58:45.673Z,62.10
2023-03-18T17:01:26.087Z,61.37
2023-03-18T17:04:04.392Z,61.46
2023-03-18T17:06:41.414Z,62.29
2023-03-18T17:09:11.679Z,63.45
2023-03-18T17:11:39.193Z,64.75
2023-03-18T17:14:08.164Z,65.79
2023-03-18T17:16:36.743Z,66.49
2023-03-18T17:19:04.521Z,66.72
2023-03-18T17:21:32.193Z,66.21
2023-03-18T17:23:59.166Z,65.97
2023-03-18T17:26:43.035Z,68.47
2023-03-18T17:29:25.823Z,69.22
2023-03-18T17:31:54.217Z,70.57
2023-03-18T17:34:23.943Z,71.12
2023-03-18T17:36:51.609Z,71.33
2023-03-18T17:39:19.828Z,72.18
2023-03-18T17:41:46.594Z,72.40
2023-03-18T17:44:35.589Z,73.56
2023-03-18T17:47:03.408Z,74.47
2023-03-18T17:49:31.672Z,73.99
2023-03-18T17:52:04.558Z,76.08
2023-03-18T17:54:38.441Z,77.86
2023-03-18T17:57:13.676Z,76.55
2023-03-18T17:59:42.557Z,77.24
2023-03-18T18:02:18.672Z,77.25
2023-03-18T18:04:48.131Z,77.54
2023-03-18T18:07:27.802Z,76.64
2023-03-18T18:09:59.070Z,77.88
2023-03-18T18:12:30.554Z,78.07
2023-03-18T18:15:05.058Z,77.99
2023-03-18T18:17:43.249Z,79.11
2023-03-18T18:20:23.292Z,79.94
2023-03-18T18:22:57.058Z,80.77
2023-03-18T18:25:26.927Z,80.24
2023-03-18T18:27:55.374Z,80.74
2023-03-18T18:30:33.400Z,80.59
2023-03-18T18:33:04.188Z,81.45
2023-03-18T18:35:32.871Z,82.92
2023-03-18T18:38:00.102Z,82.80
2023-03-18T18:40:26.852Z,82.08
2023-03-18T18:42:54.451Z,82.10
2023-03-18T18:45:22.059Z,82.80
2023-03-18T18:47:49.593Z,83.43
2023-03-18T18:50:19.814Z,83.63
2023-03-18T18:52:47.451Z,84.16
2023-03-18T18:55:14.294Z,84.20
2023-03-18T18:57:43.270Z,85.23
2023-03-18T19:00:22.588Z,85.41
2023-03-18T19:02:57.394Z,85.28
2023-03-18T19:05:24.218Z,85.43
2023-03-18T19:07:51.709Z,85.42
2023-03-18T19:10:18.966Z,85.59
2023-03-18T19:12:45.736Z,85.66
2023-03-18T19:15:15.482Z,85.97
2023-03-18T19:17:43.580Z,85.98
2023-03-18T19:20:39.789Z,87.45
2023-03-18T19:23:14.668Z,88.06
2023-03-18T19:25:42.266Z,87.96
2023-03-18T19:28:15.017Z,87.92
2023-03-18T19:30:43.039Z,88.70
2023-03-18T19:33:17.259Z,89.34
2023-03-18T19:35:44.201Z,89.14
2023-03-18T19:38:16.810Z,88.99
2023-03-18T19:40:43.575Z,90.35
2023-03-18T19:43:16.240Z,90.57
2023-03-18T19:45:50.652Z,90.81
2023-03-18T19:48:21.221Z,90.99
2023-03-18T19:50:48.595Z,90.46
2023-03-18T19:53:17.287Z,91.10
2023-03-18T19:55:45.244Z,89.41
2023-03-18T19:58:23.220Z,90.04
2023-03-18T20:00:51.373Z,90.64
2023-03-18T20:03:20.418Z,91.62
2023-03-18T20:05:47.758Z,92.36
2023-03-18T20:08:14.912Z,91.71
2023-03-18T20:10:42.731Z,91.40
2023-03-18T20:13:17.064Z,91.76
2023-03-18T20:15:43.863Z,92.10
2023-03-18T20:18:17.025Z,92.11
2023-03-18T20:20:52.967Z,92.16
2023-03-18T20:23:23.184Z,91.85
2023-03-18T20:25:54.899Z,92.77
2023-03-18T20:28:29.083Z,92.87
2023-03-18T20:30:57.558Z,93.07
2023-03-18T20:33:26.519Z,92.67
2023-03-18T20:35:54.161Z,92.93
2023-03-18T20:38:39.737Z,92.51
2023-03-18T20:41:06.862Z,92.32
2023-03-18T20:43:34.192Z,93.84
2023-03-18T20:46:02.146Z,93.62
2023-03-18T20:48:28.897Z,92.41
2023-03-18T20:50:55.876Z,92.82
2023-03-18T20:53:24.439Z,93.35
2023-03-18T20:55:52.131Z,92.20
2023-03-18T20:58:28.321Z,92.90
2023-03-18T21:00:55.412Z,94.07
2023-03-18T21:03:33.902Z,93.37
2023-03-18T21:06:03.641Z,93.82
2023-03-18T21:08:32.322Z,95.26
2023-03-18T21:11:02.096Z,94.71
2023-03-18T21:13:39.348Z,94.92
2023-03-18T21:16:16.930Z,95.15
2023-03-18T21:18:46.029Z,95.94
2023-03-18T21:21:51.315Z,96.33
2023-03-18T21:24:20.430Z,96.65
2023-03-18T21:27:03.168Z,97.25
2023-03-18T21:29:30.782Z,96.65
2023-03-18T21:31:57.483Z,97.22
2023-03-18T21:34:24.122Z,96.76
2023-03-18T21:36:51.413Z,96.66
2023-03-18T21:39:18.063Z,96.80
2023-03-18T21:41:45.093Z,96.86
2023-03-18T21:44:12.601Z,97.54
2023-03-18T21:46:39.328Z,96.90
2023-03-18T21:49:07.591Z,97.71
2023-03-18T21:51:39.690Z,97.70
2023-03-18T21:54:11.710Z,97.59
2023-03-18T21:56:38.359Z,99.70
2023-03-18T21:59:05.032Z,98.85
2023-03-18T22:01:32.534Z,98.21
2023-03-18T22:03:59.494Z,97.58
2023-03-18T22:06:26.180Z,97.47
2023-03-18T22:08:52.947Z,98.09
2023-03-18T22:11:22.206Z,98.15
2023-03-18T22:13:49.733Z,97.87
2023-03-18T22:16:17.874Z,98.45
2023-03-18T22:18:46.094Z,99.07
2023-03-18T22:21:31.184Z,98.95
2023-03-18T22:24:00.199Z,98.75
2023-03-18T22:26:26.949Z,99.50
2023-03-18T22:28:53.569Z,98.69
2023-03-18T22:31:25.579Z,97.97
2023-03-18T22:33:53.952Z,97.96
2023-03-18T22:36:25.621Z,97.67
2023-03-18T22:38:52.400Z,97.47
2023-03-18T22:41:22.165Z,97.36
2023-03-18T22:43:49.477Z,98.21
2023-03-18T22:46:16.318Z,98.78
2023-03-18T22:48:43.704Z,98.01
2023-03-18T22:51:23.945Z,98.48
2023-03-18T22:53:52.289Z,98.28
2023-03-18T22:56:19.084Z,98.45
2023-03-18T22:58:45.886Z,98.13
2023-03-18T23:01:16.801Z,98.90
2023-03-18T23:03:47.808Z,98.44
2023-03-18T23:06:20.274Z,99.15
2023-03-18T23:08:47.232Z,99.50
2023-03-18T23:11:15.029Z,99.46
2023-03-18T23:13:52.500Z,100.00
2023-03-18T23:16:21.358Z,100.00
2023-03-18T23:18:48.722Z,100.00
2023-03-18T23:21:23.761Z,100.00
2023-03-18T23:23:51.318Z,100.00
2023-03-18T23:26:18.274Z,100.00
2023-03-18T23:28:45.564Z,100.00
2023-03-18T23:31:15.245Z,100.00
2023-03-18T23:33:42.326Z,100.00
2023-03-18T23:36:09.490Z,100.00
2023-03-18T23:38:38.116Z,100.00
2023-03-18T23:41:05.384Z,100.00
2023-03-18T23:43:31.999Z,100.00
2023-03-18T23:45:58.737Z,100.00
2023-03-18T23:48:25.873Z,99.86
2023-03-18T23:50:52.558Z,100.00
2023-03-18T23:53:19.527Z,100.00
2023-03-18T23:55:48.671Z,100.00
2023-03-18T23:58:15.724Z,100.00
